createdAt,value
2023-10-25T00:01:22.584Z,9.55
2023-10-25T00:03:52.960Z,9.70
2023-10-25T00:06:23.339Z,9.73
2023-10-25T00:08:51.691Z,9.45
2023-10-25T00:11:20.555Z,9.15
2023-10-25T00:13:53.818Z,9.38
2023-10-25T00:16:25.382Z,10.05
2023-10-25T00:18:53.922Z,9.48
2023-10-25T00:21:24.878Z,9.32
2023-10-25T00:23:57.003Z,10.38
2023-10-25T00:26:25.331Z,9.82
2023-10-25T00:28:55.615Z,10.18
2023-10-25T00:31:26.363Z,10.45
2023-10-25T00:33:56.540Z,10.55
2023-10-25T00:36:28.968Z,10.40
2023-10-25T00:39:00.196Z,10.02
2023-10-25T00:41:29.811Z,9.98
2023-10-25T00:43:58.914Z,9.38
2023-10-25T00:46:29.290Z,10.38
2023-10-25T00:49:00.710Z,9.52
2023-10-25T00:51:35.527Z,9.88
2023-10-25T00:54:05.591Z,9.93
2023-10-25T00:56:35.352Z,10.18
2023-10-25T00:59:04.477Z,10.07
2023-10-25T01:01:33.121Z,10.63
2023-10-25T01:04:02.116Z,11.10
2023-10-25T01:06:32.404Z,10.15
2023-10-25T01:09:04.017Z,9.85
2023-10-25T01:11:33.697Z,10.73
2023-10-25T01:14:15.826Z,9.73
2023-10-25T01:19:17.135Z,9.32
2023-10-25T01:21:48.863Z,10.18
2023-10-25T01:24:19.709Z,10.88
2023-10-25T01:26:48.635Z,9.98
2023-10-25T01:29:17.245Z,10.85
2023-10-25T01:31:47.082Z,10.52
2023-10-25T01:34:20.028Z,10.23
2023-10-25T01:36:49.269Z,9.18
2023-10-25T01:39:19.502Z,9.25
2023-10-25T01:41:49.122Z,9.77
2023-10-25T01:44:18.904Z,9.13
2023-10-25T01:46:47.299Z,9.85
2023-10-25T01:49:19.722Z,9.48
2023-10-25T01:51:51.729Z,8.35
2023-10-25T01:54:22.978Z,8.95
2023-10-25T01:56:51.272Z,10.13
2023-10-25T01:59:19.980Z,8.90
2023-10-25T02:01:50.727Z,9.13
2023-10-25T02:04:19.339Z,8.57
2023-10-25T02:06:53.289Z,8.45
2023-10-25T02:09:26.062Z,9.13
2023-10-25T02:11:55.048Z,8.98
2023-10-25T02:14:24.163Z,8.25
2023-10-25T02:16:55.223Z,9.27
2023-10-25T02:19:25.304Z,8.18
2023-10-25T02:21:54.940Z,8.93
2023-10-25T02:24:27.350Z,9.45
2023-10-25T02:26:56.532Z,8.80
2023-10-25T02:29:24.918Z,9.38
2023-10-25T02:31:54.981Z,7.85
2023-10-25T02:34:23.427Z,8.52
2023-10-25T02:36:54.953Z,8.65
2023-10-25T02:39:24.416Z,9.52
2023-10-25T02:41:54.443Z,9.90
2023-10-25T02:44:25.411Z,9.88
2023-10-25T02:46:54.596Z,9.30
2023-10-25T02:49:22.981Z,8.75
2023-10-25T02:51:53.378Z,8.80
2023-10-25T02:54:49.878Z,8.45
2023-10-25T02:57:20.921Z,9.02
2023-10-25T02:59:53.225Z,8.13
2023-10-25T03:02:22.401Z,8.48
2023-10-25T03:04:52.738Z,8.10
2023-10-25T03:07:21.614Z,8.15
2023-10-25T03:09:50.051Z,8.43
2023-10-25T03:12:20.069Z,9.15
2023-10-25T03:14:49.735Z,8.55
2023-10-25T03:17:18.741Z,9.05
2023-10-25T03:19:48.130Z,8.05
2023-10-25T03:22:17.950Z,8.55
2023-10-25T03:24:47.029Z,9.15
2023-10-25T03:27:15.806Z,9.23
2023-10-25T03:29:47.135Z,8.77
2023-10-25T03:32:15.490Z,8.73
2023-10-25T03:34:46.417Z,8.43
2023-10-25T03:37:15.303Z,9.05
2023-10-25T03:39:44.856Z,8.35
2023-10-25T03:42:13.362Z,7.97
2023-10-25T03:44:45.651Z,8.45
2023-10-25T03:47:16.399Z,7.47
2023-10-25T03:49:45.411Z,8.35
2023-10-25T03:52:14.352Z,8.13
2023-10-25T03:54:42.931Z,8.45
2023-10-25T03:57:11.476Z,8.07
2023-10-25T03:59:41.675Z,7.72
2023-10-25T04:02:12.905Z,8.48
2023-10-25T04:04:43.080Z,7.60
2023-10-25T04:07:13.386Z,8.15
2023-10-25T04:09:43.485Z,8.10
2023-10-25T04:12:14.882Z,8.10
2023-10-25T04:14:47.365Z,7.63
2023-10-25T04:17:16.749Z,8.45
2023-10-25T04:19:50.553Z,7.90
2023-10-25T04:22:18.677Z,8.73
2023-10-25T04:24:46.883Z,8.32
2023-10-25T04:27:15.500Z,7.70
2023-10-25T04:29:44.890Z,8.43
2023-10-25T04:32:13.019Z,8.07
2023-10-25T04:34:42.374Z,7.78
2023-10-25T04:37:12.223Z,7.68
2023-10-25T04:39:41.794Z,8.38
2023-10-25T04:42:10.479Z,7.78
2023-10-25T04:44:41.732Z,9.02
2023-10-25T04:47:10.735Z,9.25
2023-10-25T04:49:39.426Z,10.45
2023-10-25T04:52:08.483Z,10.32
2023-10-25T04:54:38.260Z,9.48
2023-10-25T04:57:07.960Z,9.27
2023-10-25T04:59:39.113Z,9.45
2023-10-25T05:02:07.800Z,9.60
2023-10-25T05:04:38.081Z,9.50
2023-10-25T05:07:11.108Z,9.80
2023-10-25T05:09:42.272Z,8.07
2023-10-25T05:12:12.325Z,9.77
2023-10-25T05:14:41.465Z,9.30
2023-10-25T05:17:11.027Z,8.73
2023-10-25T05:19:40.921Z,8.88
2023-10-25T05:22:13.337Z,8.93
2023-10-25T05:24:45.346Z,9.48
2023-10-25T05:27:14.438Z,9.98
2023-10-25T05:29:46.200Z,9.85
2023-10-25T05:32:17.063Z,10.27
2023-10-25T05:34:48.644Z,10.25
2023-10-25T05:37:17.947Z,9.48
2023-10-25T05:39:51.511Z,8.75
2023-10-25T05:42:21.485Z,9.83
2023-10-25T05:44:53.261Z,9.00
2023-10-25T05:47:22.973Z,11.20
2023-10-25T05:49:53.726Z,10.77
2023-10-25T05:52:28.150Z,11.43
2023-10-25T05:55:03.615Z,11.60
2023-10-25T05:57:32.614Z,12.57
2023-10-25T06:00:02.513Z,11.13
2023-10-25T06:02:36.409Z,11.73
2023-10-25T06:05:11.005Z,10.55
2023-10-25T06:07:41.148Z,12.20
2023-10-25T06:10:12.398Z,11.68
2023-10-25T06:12:42.431Z,11.63
2023-10-25T06:15:12.250Z,12.05
2023-10-25T06:17:40.794Z,11.27
2023-10-25T06:20:11.464Z,11.90
2023-10-25T06:22:46.960Z,12.27
2023-10-25T06:25:18.038Z,12.52
2023-10-25T06:27:46.412Z,12.30
2023-10-25T06:30:15.015Z,11.98
2023-10-25T06:32:43.472Z,12.50
2023-10-25T06:35:14.355Z,13.73
2023-10-25T06:37:43.392Z,15.57
2023-10-25T06:40:12.805Z,15.50
2023-10-25T06:42:46.992Z,13.68
2023-10-25T06:45:17.639Z,13.80
2023-10-25T06:47:46.949Z,14.10
2023-10-25T06:50:18.280Z,12.60
2023-10-25T06:52:47.622Z,12.40
2023-10-25T06:55:19.745Z,12.02
2023-10-25T06:57:51.480Z,11.75
2023-10-25T07:00:25.545Z,11.77
2023-10-25T07:02:58.338Z,11.63
2023-10-25T07:05:27.886Z,10.90
2023-10-25T07:07:59.142Z,10.13
2023-10-25T07:10:28.351Z,10.98
2023-10-25T07:13:02.184Z,10.80
2023-10-25T07:15:32.770Z,10.43
2023-10-25T07:18:03.349Z,10.25
2023-10-25T07:20:37.154Z,10.95
2023-10-25T07:23:06.299Z,10.18
2023-10-25T07:25:37.453Z,10.93
2023-10-25T07:28:09.395Z,10.30
2023-10-25T07:30:40.050Z,10.67
2023-10-25T07:33:11.375Z,11.35
2023-10-25T07:35:42.057Z,11.07
2023-10-25T07:38:10.444Z,10.57
2023-10-25T07:40:41.374Z,10.95
2023-10-25T07:43:14.039Z,10.77
2023-10-25T07:45:42.832Z,10.25
2023-10-25T07:48:11.799Z,11.32
2023-10-25T07:50:41.563Z,11.15
2023-10-25T07:53:10.228Z,13.05
2023-10-25T08:00:52.933Z,11.68
2023-10-25T08:03:22.839Z,12.07
2023-10-25T08:05:52.214Z,12.38
2023-10-25T08:08:23.784Z,11.95
2023-10-25T08:11:01.951Z,13.63
2023-10-25T08:13:40.786Z,13.13
2023-10-25T08:16:11.468Z,11.75
2023-10-25T08:18:41.686Z,12.35
2023-10-25T08:21:14.950Z,12.52
2023-10-25T08:23:46.490Z,12.07
2023-10-25T08:26:15.028Z,11.50
2023-10-25T08:28:44.849Z,12.15
2023-10-25T08:31:13.355Z,12.15
2023-10-25T08:33:42.396Z,12.82
2023-10-25T08:36:11.019Z,11.95
2023-10-25T08:38:39.354Z,11.65
2023-10-25T08:41:09.091Z,11.73
2023-10-25T08:43:38.569Z,12.57
2023-10-25T08:46:08.457Z,11.73
2023-10-25T08:48:37.004Z,11.25
2023-10-25T08:51:06.470Z,11.88
2023-10-25T08:53:36.346Z,11.10
2023-10-25T08:56:05.584Z,11.48
2023-10-25T08:58:33.722Z,12.10
2023-10-25T09:01:03.061Z,10.85
2023-10-25T09:03:42.973Z,12.10
2023-10-25T09:06:13.253Z,10.63
2023-10-25T09:08:43.800Z,11.23
2023-10-25T09:11:14.211Z,10.98
2023-10-25T09:13:43.628Z,11.05
2023-10-25T09:16:13.272Z,10.27
2023-10-25T09:18:44.135Z,9.52
2023-10-25T09:21:14.496Z,10.77
2023-10-25T09:23:43.378Z,11.57
2023-10-25T09:26:17.304Z,10.07
2023-10-25T09:28:47.592Z,10.48
2023-10-25T09:31:23.466Z,9.73
2023-10-25T09:33:53.694Z,10.43
2023-10-25T09:36:23.317Z,9.90
2023-10-25T09:38:52.504Z,10.07
2023-10-25T09:41:21.193Z,9.68
2023-10-25T09:43:50.621Z,9.43
2023-10-25T09:46:20.607Z,9.50
2023-10-25T09:48:56.800Z,10.30
2023-10-25T09:51:39.406Z,10.00
2023-10-25T09:54:12.100Z,10.52
2023-10-25T09:56:40.963Z,9.77
2023-10-25T09:59:12.171Z,9.50
2023-10-25T10:01:42.717Z,10.15
2023-10-25T10:04:19.047Z,8.70
2023-10-25T10:06:52.098Z,9.57
2023-10-25T10:09:27.693Z,9.23
2023-10-25T10:12:07.781Z,10.45
2023-10-25T10:14:37.186Z,9.82
2023-10-25T10:17:07.834Z,10.73
2023-10-25T10:19:39.736Z,9.57
2023-10-25T10:22:09.226Z,9.63
2023-10-25T10:24:50.353Z,9.82
2023-10-25T10:27:21.683Z,9.65
2023-10-25T10:29:50.837Z,9.07
2023-10-25T10:32:19.994Z,9.30
2023-10-25T10:34:49.377Z,9.27
2023-10-25T10:37:20.384Z,8.75
2023-10-25T10:40:15.067Z,9.00
2023-10-25T10:42:43.852Z,8.70
2023-10-25T10:45:14.222Z,9.45
2023-10-25T10:47:45.427Z,8.55
2023-10-25T10:50:16.990Z,10.32
2023-10-25T10:52:48.190Z,9.93
2023-10-25T10:55:17.676Z,9.82
2023-10-25T10:58:02.901Z,10.73
2023-10-25T11:00:34.915Z,10.48
2023-10-25T11:03:09.143Z,10.45
2023-10-25T11:05:40.335Z,10.25
2023-10-25T11:08:15.210Z,10.70
2023-10-25T11:10:44.879Z,9.63
2023-10-25T11:13:13.573Z,9.93
2023-10-25T11:15:41.694Z,9.27
2023-10-25T11:18:11.734Z,10.27
2023-10-25T11:20:42.806Z,9.85
2023-10-25T11:23:13.876Z,11.10
2023-10-25T11:25:50.304Z,10.30
2023-10-25T11:28:20.049Z,9.95
2023-10-25T11:30:49.536Z,9.88
2023-10-25T11:33:18.149Z,10.35
2023-10-25T11:35:48.164Z,9.93
2023-10-25T11:38:17.338Z,11.15
2023-10-25T11:40:48.108Z,10.20
2023-10-25T11:43:16.983Z,10.43
2023-10-25T11:45:45.869Z,11.30
2023-10-25T11:48:15.755Z,11.73
2023-10-25T11:50:45.902Z,11.10
2023-10-25T11:53:17.846Z,10.48
2023-10-25T11:55:54.980Z,11.37
2023-10-25T11:58:24.992Z,10.93
2023-10-25T12:01:09.249Z,10.85
2023-10-25T12:03:39.977Z,11.75
2023-10-25T12:06:08.654Z,11.80
2023-10-25T12:08:38.815Z,11.50
2023-10-25T12:11:11.610Z,12.70
2023-10-25T12:13:42.656Z,12.05
2023-10-25T12:16:23.806Z,11.80
2023-10-25T12:18:55.033Z,12.15
2023-10-25T12:21:23.662Z,11.45
2023-10-25T12:23:56.471Z,10.85
2023-10-25T12:26:27.481Z,11.35
2023-10-25T12:28:55.809Z,10.93
2023-10-25T12:31:28.028Z,10.63
2023-10-25T12:33:56.402Z,10.85
2023-10-25T12:36:24.663Z,10.63
2023-10-25T12:38:53.077Z,11.07
2023-10-25T12:41:22.573Z,11.50
2023-10-25T12:43:54.025Z,11.80
2023-10-25T12:46:23.013Z,11.55
2023-10-25T12:48:52.626Z,12.02
2023-10-25T12:51:20.907Z,11.13
2023-10-25T12:53:49.423Z,10.80
2023-10-25T12:56:18.343Z,11.30
2023-10-25T12:58:47.904Z,9.95
2023-10-25T13:01:16.047Z,11.75
2023-10-25T13:03:44.243Z,11.10
2023-10-25T13:06:13.003Z,11.18
2023-10-25T13:08:44.312Z,11.55
2023-10-25T13:11:13.031Z,13.23
2023-10-25T13:13:42.824Z,12.52
2023-10-25T13:16:13.059Z,12.30
2023-10-25T13:18:49.178Z,10.55
2023-10-25T13:21:18.346Z,10.73
2023-10-25T13:23:46.893Z,10.30
2023-10-25T13:26:15.164Z,11.32
2023-10-25T13:28:43.212Z,12.25
2023-10-25T13:31:12.827Z,11.10
2023-10-25T13:33:41.110Z,10.85
2023-10-25T13:36:09.744Z,11.02
2023-10-25T13:38:38.043Z,11.70
2023-10-25T13:41:06.971Z,11.48
2023-10-25T13:43:35.302Z,10.90
2023-10-25T13:46:05.862Z,11.15
2023-10-25T13:48:35.550Z,10.90
2023-10-25T13:51:03.624Z,11.52
2023-10-25T13:53:32.026Z,10.70
2023-10-25T13:56:00.352Z,10.35
2023-10-25T13:58:31.342Z,9.95
2023-10-25T14:01:05.492Z,9.70
2023-10-25T14:03:34.245Z,9.70
2023-10-25T14:06:06.645Z,10.35
2023-10-25T14:08:35.250Z,10.30
2023-10-25T14:11:03.932Z,10.18
2023-10-25T14:16:10.085Z,10.35
2023-10-25T14:18:38.711Z,9.77
2023-10-25T14:21:15.467Z,10.35
2023-10-25T14:23:46.189Z,11.35
2023-10-25T14:26:14.541Z,10.43
2023-10-25T14:28:46.168Z,10.18
2023-10-25T14:31:18.344Z,9.85
2023-10-25T14:33:46.812Z,10.07
2023-10-25T14:36:16.529Z,9.85
2023-10-25T14:38:46.135Z,9.55
2023-10-25T14:41:14.520Z,10.55
2023-10-25T14:43:43.060Z,10.50
2023-10-25T14:46:15.264Z,10.32
2023-10-25T14:48:49.680Z,10.57
2023-10-25T14:51:22.530Z,10.63
2023-10-25T14:53:51.594Z,10.63
2023-10-25T14:56:23.136Z,9.82
2023-10-25T14:58:51.705Z,10.68
2023-10-25T15:01:19.989Z,10.57
2023-10-25T15:03:50.544Z,10.13
2023-10-25T15:06:27.208Z,10.70
2023-10-25T15:08:55.601Z,7.43
2023-10-25T15:11:26.925Z,7.68
2023-10-25T15:14:04.738Z,10.40
2023-10-25T15:16:37.146Z,11.25
2023-10-25T15:21:38.881Z,9.52
2023-10-25T15:24:08.747Z,8.60
2023-10-25T15:26:37.110Z,9.88
2023-10-25T15:29:06.249Z,8.80
2023-10-25T15:31:34.568Z,10.65
2023-10-25T15:34:03.152Z,9.65
2023-10-25T15:36:32.553Z,9.27
2023-10-25T15:39:09.914Z,10.52
2023-10-25T15:41:38.827Z,8.68
2023-10-25T15:44:11.094Z,9.00
2023-10-25T15:46:40.662Z,9.25
2023-10-25T15:49:09.139Z,9.90
2023-10-25T15:51:37.649Z,9.45
2023-10-25T15:54:07.665Z,8.20
2023-10-25T15:56:35.736Z,9.15
2023-10-25T15:59:05.089Z,9.45
2023-10-25T16:01:44.431Z,9.90
2023-10-25T16:04:20.572Z,9.23
2023-10-25T16:06:49.479Z,10.18
2023-10-25T16:09:21.968Z,9.18
2023-10-25T16:11:50.699Z,9.93
2023-10-25T16:14:24.440Z,11.07
2023-10-25T16:16:53.908Z,10.95
2023-10-25T16:19:23.500Z,11.20
2023-10-25T16:21:52.471Z,10.25
2023-10-25T16:24:29.589Z,9.73
2023-10-25T16:27:00.166Z,11.00
2023-10-25T16:29:31.845Z,11.40
2023-10-25T16:32:00.410Z,10.80
2023-10-25T16:34:32.868Z,10.23
2023-10-25T16:37:05.541Z,11.30
2023-10-25T16:39:41.891Z,12.20
2023-10-25T16:42:14.135Z,10.73
2023-10-25T16:44:43.496Z,10.05
2023-10-25T16:47:11.432Z,11.30
2023-10-25T16:49:41.191Z,10.00
2023-10-25T16:52:12.862Z,10.57
2023-10-25T16:57:14.669Z,11.25
2023-10-25T16:59:44.857Z,10.35
2023-10-25T17:02:16.889Z,10.75
2023-10-25T17:04:46.192Z,11.00
2023-10-25T17:07:15.516Z,10.23
2023-10-25T17:09:45.923Z,10.30
2023-10-25T17:12:16.336Z,10.32
2023-10-25T17:14:46.465Z,10.90
2023-10-25T17:17:14.497Z,9.60
2023-10-25T17:19:43.292Z,10.88
2023-10-25T17:22:12.348Z,10.98
2023-10-25T17:24:40.819Z,9.82
2023-10-25T17:27:11.309Z,10.20
2023-10-25T17:29:39.925Z,10.40
2023-10-25T17:32:09.614Z,11.68
2023-10-25T17:34:38.419Z,10.35
2023-10-25T17:37:11.439Z,11.45
2023-10-25T17:39:39.903Z,9.55
2023-10-25T17:42:08.718Z,10.13
2023-10-25T17:44:38.297Z,11.27
2023-10-25T17:47:07.560Z,11.70
2023-10-25T17:49:35.687Z,11.10
2023-10-25T17:52:04.096Z,11.23
2023-10-25T17:54:32.144Z,11.00
2023-10-25T17:57:01.655Z,11.00
2023-10-25T17:59:31.444Z,11.73
2023-10-25T18:02:02.213Z,10.68
2023-10-25T18:04:35.480Z,10.65
2023-10-25T18:07:08.704Z,11.07
2023-10-25T18:09:37.070Z,12.27
2023-10-25T18:12:23.789Z,11.60
2023-10-25T18:14:57.425Z,10.90
2023-10-25T18:17:27.638Z,11.88
2023-10-25T18:19:56.163Z,11.30
2023-10-25T18:22:25.801Z,11.98
2023-10-25T18:24:53.993Z,11.55
2023-10-25T18:27:23.366Z,11.80
2023-10-25T18:30:14.046Z,12.38
2023-10-25T18:32:41.586Z,11.60
2023-10-25T18:35:10.792Z,11.20
2023-10-25T18:37:41.823Z,12.38
2023-10-25T18:40:10.923Z,12.98
2023-10-25T18:42:39.580Z,11.80
2023-10-25T18:45:09.006Z,12.68
2023-10-25T18:47:37.147Z,12.48
2023-10-25T18:50:07.582Z,11.43
2023-10-25T18:52:36.049Z,11.73
2023-10-25T18:55:04.160Z,12.75
2023-10-25T18:57:32.232Z,11.90
2023-10-25T19:00:01.084Z,12.05
2023-10-25T19:02:30.324Z,12.57
2023-10-25T19:06:28.940Z,12.43
2023-10-25T19:08:25.048Z,11.45
2023-10-25T19:10:40.898Z,11.77
2023-10-25T19:13:08.889Z,11.63
2023-10-25T19:15:37.682Z,11.48
2023-10-25T19:18:13.625Z,11.70
2023-10-25T19:20:42.174Z,51.78
2023-10-25T19:23:14.806Z,25.15
2023-10-25T19:25:43.124Z,26.30
2023-10-25T19:28:12.751Z,24.20
2023-10-25T19:30:42.762Z,15.55
2023-10-25T19:33:12.690Z,13.95
2023-10-25T19:35:40.936Z,15.70
2023-10-25T19:38:11.050Z,14.10
2023-10-25T19:40:39.418Z,12.95
2023-10-25T19:43:16.450Z,12.63
2023-10-25T19:45:46.224Z,11.43
2023-10-25T19:48:15.063Z,11.18
2023-10-25T19:50:43.274Z,10.60
2023-10-25T19:53:12.849Z,11.30
2023-10-25T19:55:43.114Z,11.27
2023-10-25T19:58:12.486Z,11.02
2023-10-25T20:00:40.910Z,10.73
2023-10-25T20:03:09.324Z,10.20
2023-10-25T20:05:37.827Z,10.48
2023-10-25T20:08:08.719Z,10.63
2023-10-25T20:10:40.088Z,11.10
2023-10-25T20:13:08.530Z,11.05
2023-10-25T20:15:37.503Z,10.65
2023-10-25T20:18:07.225Z,11.07
2023-10-25T20:20:42.904Z,11.07
2023-10-25T20:23:12.270Z,10.82
2023-10-25T20:25:51.221Z,10.48
2023-10-25T20:28:22.368Z,10.98
2023-10-25T20:30:52.387Z,10.70
2023-10-25T20:33:21.165Z,10.57
2023-10-25T20:35:49.317Z,11.63
2023-10-25T20:38:17.371Z,11.30
2023-10-25T20:40:46.942Z,12.45
2023-10-25T20:43:15.357Z,11.38
2023-10-25T20:45:51.364Z,11.68
2023-10-25T20:48:19.706Z,11.55
2023-10-25T20:50:48.862Z,10.02
2023-10-25T20:53:17.169Z,11.20
2023-10-25T20:55:47.460Z,10.95
2023-10-25T20:58:16.321Z,11.38
2023-10-25T21:00:45.052Z,10.75
2023-10-25T21:03:15.228Z,12.60
2023-10-25T21:05:43.947Z,11.85
2023-10-25T21:08:12.498Z,11.40
2023-10-25T21:10:41.110Z,12.02
2023-10-25T21:13:11.308Z,11.18
2023-10-25T21:15:39.685Z,11.35
2023-10-25T21:18:08.622Z,11.90
2023-10-25T21:20:37.447Z,11.60
2023-10-25T21:23:06.144Z,12.63
2023-10-25T21:25:37.147Z,11.75
2023-10-25T21:28:05.920Z,11.60
2023-10-25T21:30:37.480Z,11.45
2023-10-25T21:33:06.077Z,11.10
2023-10-25T21:35:34.666Z,10.05
2023-10-25T21:38:03.010Z,11.80
2023-10-25T21:40:31.980Z,11.55
2023-10-25T21:43:00.682Z,11.60
2023-10-25T21:45:30.350Z,11.93
2023-10-25T21:48:00.923Z,13.05
2023-10-25T21:50:30.660Z,12.75
2023-10-25T21:52:58.846Z,12.38
2023-10-25T21:55:27.114Z,12.25
2023-10-25T21:59:46.923Z,12.77
2023-10-25T22:01:09.710Z,12.13
2023-10-25T22:03:40.248Z,12.50
2023-10-25T22:06:08.781Z,12.68
2023-10-25T22:08:37.354Z,12.38
2023-10-25T22:11:06.022Z,11.85
2023-10-25T22:13:38.242Z,13.13
2023-10-25T22:16:06.897Z,13.13
2023-10-25T22:18:35.397Z,12.98
2023-10-25T22:21:03.841Z,12.32
2023-10-25T22:23:31.963Z,12.73
2023-10-25T22:25:59.991Z,12.95
2023-10-25T22:28:28.158Z,13.30
2023-10-25T22:30:57.548Z,13.88
2023-10-25T22:33:25.684Z,13.10
2023-10-25T22:35:53.785Z,12.18
2023-10-25T22:38:24.398Z,14.27
2023-10-25T22:40:55.412Z,12.98
2023-10-25T22:43:23.723Z,11.98
2023-10-25T22:45:51.908Z,12.88
2023-10-25T22:48:25.612Z,13.02
2023-10-25T22:51:01.809Z,12.77
2023-10-25T22:53:30.038Z,12.80
2023-10-25T22:55:58.303Z,14.05
2023-10-25T22:58:26.819Z,13.13
2023-10-25T23:00:55.238Z,14.10
2023-10-25T23:03:25.207Z,12.70
2023-10-25T23:05:53.434Z,12.60
2023-10-25T23:08:22.254Z,13.70
2023-10-25T23:10:50.785Z,12.18
2023-10-25T23:13:19.440Z,11.65
2023-10-25T23:15:48.078Z,13.68
2023-10-25T23:18:16.351Z,11.93
2023-10-25T23:20:52.045Z,13.02
2023-10-25T23:23:19.484Z,13.25
2023-10-25T23:25:47.709Z,13.15
2023-10-25T23:28:15.800Z,14.02
2023-10-25T23:30:43.978Z,13.10
2023-10-25T23:33:12.368Z,12.93
2023-10-25T23:35:40.420Z,14.00
2023-10-25T23:38:09.997Z,12.88
2023-10-25T23:40:38.190Z,12.93
2023-10-25T23:43:06.285Z,12.93
2023-10-25T23:45:34.577Z,13.13
2023-10-25T23:48:03.030Z,11.95
2023-10-25T23:50:31.211Z,12.70
2023-10-25T23:52:59.374Z,13.05
2023-10-25T23:55:28.992Z,10.73
2023-10-25T23:57:58.002Z,12.50
